Time;durP1;ratioP1;P1;durP2;ratioP2;P2;SDS_P1;SDS_P2;PMS_P1;PMS_P2;Temp;Humidity;BMP_temperature;BMP_pressure;BME280_temperature;BME280_humidity;BME280_pressure;Samples;Min_cycle;Max_cycle;Signal;HPM_P1;HPM_P2
2021/07/12 00:00:05;;;;;;;20.80;10.18;;;;;;;;;;6117742;29;20110;-78
2021/07/12 00:03:07;;;;;;;18.13;10.07;;;;;;;;;;6119393;28;20043;-78
2021/07/12 00:06:09;;;;;;;17.95;10.60;;;;;;;;;;6118578;29;20079;-78
2021/07/12 00:09:11;;;;;;;22.30;11.05;;;;;;;;;;6109390;29;20123;-78
2021/07/12 00:12:14;;;;;;;;;;;;;;;;;;6119681;29;20071;-78
2021/07/12 00:15:17;;;;;;;22.80;11.68;;;;;;;;;;6118933;29;20010;-78
2021/07/12 00:18:19;;;;;;;59.25;13.40;;;;;;;;;;6118300;28;20484;-78
2021/07/12 00:21:21;;;;;;;46.92;12.30;;;;;;;;;;6119185;29;20195;-78
2021/07/12 00:24:23;;;;;;;23.15;11.90;;;;;;;;;;6117702;29;20036;-78
2021/07/12 00:27:27;;;;;;;126.20;15.05;;;;;;;;;;6131737;28;20047;-78
2021/07/12 00:30:29;;;;;;;27.70;10.48;;;;;;;;;;6144848;28;20203;-78
2021/07/12 00:33:32;;;;;;;44.40;12.30;;;;;;;;;;6144395;28;20059;-78
2021/07/12 00:36:33;;;;;;;19.48;11.55;;;;;;;;;;6148035;28;20186;-78
2021/07/12 00:39:35;;;;;;;17.00;10.98;;;;;;;;;;6146488;28;20103;-78
2021/07/12 00:42:39;;;;;;;19.30;10.55;;;;;;;;;;6143760;28;20055;-78
2021/07/12 00:45:40;;;;;;;17.10;9.18;;;;;;;;;;6122398;28;20107;-78
2021/07/12 00:48:43;;;;;;;14.85;9.05;;;;;;;;;;6121425;29;20051;-78
2021/07/12 00:51:44;;;;;;;14.75;9.32;;;;;;;;;;6121328;29;20047;-78
2021/07/12 00:54:47;;;;;;;20.95;9.57;;;;;;;;;;6097626;29;20784;-78
2021/07/12 00:57:51;;;;;;;23.70;11.35;;;;;;;;;;6119594;29;20103;-78
2021/07/12 01:01:01;;;;;;;13.52;8.80;;;;;;;;;;6138324;28;20629;-78
2021/07/12 01:04:03;;;;;;;12.93;7.93;;;;;;;;;;6124882;28;20050;-78
2021/07/12 01:07:10;;;;;;;14.68;8.90;;;;;;;;;;6143743;28;20039;-78
2021/07/12 01:10:13;;;;;;;11.38;8.25;;;;;;;;;;6146562;28;20039;-78
2021/07/12 01:13:22;;;;;;;;;;;;;;;;;;6143420;28;20520;-78
2021/07/12 01:17:01;;;;;;;14.52;8.35;;;;;;;;;;6140292;28;19934;-78
2021/07/12 01:20:59;;;;;;;10.90;7.50;;;;;;;;;;6136806;29;20047;-78
2021/07/12 01:24:25;;;;;;;12.05;8.05;;;;;;;;;;6142248;28;20055;-78
2021/07/12 01:28:04;;;;;;;11.63;7.97;;;;;;;;;;6105315;29;20050;-78
2021/07/12 01:31:25;;;;;;;9.77;6.95;;;;;;;;;;6121297;29;20120;-78
2021/07/12 01:35:05;;;;;;;15.05;8.50;;;;;;;;;;6120948;29;20048;-78
2021/07/12 01:38:40;;;;;;;16.88;9.25;;;;;;;;;;6146511;28;20077;-78
2021/07/12 01:42:00;;;;;;;19.13;9.10;;;;;;;;;;6137040;28;20047;-78
2021/07/12 01:45:12;;;;;;;11.75;7.85;;;;;;;;;;6145838;28;20521;-78
2021/07/12 01:48:26;;;;;;;17.52;9.18;;;;;;;;;;6143216;28;20043;-78
2021/07/12 01:51:52;;;;;;;18.13;9.00;;;;;;;;;;6160618;28;20065;-78
2021/07/12 01:55:03;;;;;;;16.95;8.15;;;;;;;;;;6143418;28;20191;-78
2021/07/12 01:58:08;;;;;;;14.48;9.13;;;;;;;;;;6135775;28;20040;-78
2021/07/12 02:01:13;;;;;;;19.75;9.82;;;;;;;;;;6120172;28;20060;-78
2021/07/12 02:04:19;;;;;;;21.95;10.30;;;;;;;;;;6120092;29;20039;-78
2021/07/12 02:07:24;;;;;;;21.58;10.35;;;;;;;;;;6120083;29;20054;-78
2021/07/12 02:10:29;;;;;;;19.25;9.55;;;;;;;;;;6132999;28;20117;-78
2021/07/12 02:13:37;;;;;;;12.70;8.18;;;;;;;;;;6168337;28;20214;-78
2021/07/12 02:16:52;;;;;;;14.05;8.30;;;;;;;;;;6134669;29;20055;-78
2021/07/12 02:19:55;;;;;;;17.50;7.10;;;;;;;;;;6119814;29;20167;-78
2021/07/12 02:23:00;;;;;;;14.20;7.90;;;;;;;;;;6119885;29;20039;-78
2021/07/12 02:26:03;;;;;;;25.33;8.07;;;;;;;;;;6120936;29;20051;-78
2021/07/12 02:29:08;;;;;;;11.52;7.70;;;;;;;;;;6119565;29;20040;-78
2021/07/12 02:32:10;;;;;;;24.20;9.52;;;;;;;;;;6135972;28;20054;-78
2021/07/12 02:35:15;;;;;;;50.58;9.45;;;;;;;;;;6110641;29;20044;-79
2021/07/12 02:38:21;;;;;;;21.58;9.25;;;;;;;;;;6135855;29;20048;-78
2021/07/12 02:41:27;;;;;;;20.63;9.15;;;;;;;;;;6137841;28;20055;-78
2021/07/12 02:44:32;;;;;;;19.33;9.70;;;;;;;;;;6142442;28;20043;-78
2021/07/12 02:47:36;;;;;;;68.80;10.40;;;;;;;;;;6127059;28;20043;-78
2021/07/12 02:50:40;;;;;;;75.05;11.10;;;;;;;;;;6131591;29;20044;-77
2021/07/12 02:53:53;;;;;;;19.10;10.85;;;;;;;;;;6114855;29;20578;-78
2021/07/12 02:56:55;;;;;;;19.83;10.20;;;;;;;;;;6131094;28;20046;-78
2021/07/12 02:59:58;;;;;;;17.27;8.93;;;;;;;;;;6131024;29;20068;-78
2021/07/12 03:03:02;;;;;;;18.77;9.75;;;;;;;;;;6134104;28;20104;-77
2021/07/12 03:06:09;;;;;;;19.43;9.80;;;;;;;;;;6133532;29;20091;-77
2021/07/12 03:09:13;;;;;;;23.58;9.13;;;;;;;;;;6131545;28;20497;-77
2021/07/12 03:12:41;;;;;;;24.42;9.60;;;;;;;;;;6116829;29;20066;-77
2021/07/12 03:15:46;;;;;;;40.80;9.85;;;;;;;;;;6114955;28;20046;-77
2021/07/12 03:18:55;;;;;;;23.13;10.68;;;;;;;;;;6131165;29;20111;-78
2021/07/12 03:21:59;;;;;;;27.63;10.20;;;;;;;;;;6115318;29;20036;-78
2021/07/12 03:25:04;;;;;;;20.17;9.95;;;;;;;;;;6115574;29;20102;-77
2021/07/12 03:28:06;;;;;;;35.75;9.95;;;;;;;;;;6116456;28;20196;-77
2021/07/12 03:31:10;;;;;;;20.38;9.40;;;;;;;;;;6130959;28;20045;-77
2021/07/12 03:34:16;;;;;;;18.38;8.57;;;;;;;;;;6115022;29;20138;-78
2021/07/12 03:37:20;;;;;;;30.67;10.27;;;;;;;;;;6115438;29;20178;-78
2021/07/12 03:40:23;;;;;;;32.83;7.53;;;;;;;;;;6128713;28;20509;-77
2021/07/12 03:43:26;;;;;;;21.20;7.05;;;;;;;;;;6138842;28;20086;-77
2021/07/12 03:46:29;;;;;;;27.30;7.82;;;;;;;;;;6116304;28;20056;-77
2021/07/12 03:49:31;;;;;;;21.17;8.48;;;;;;;;;;6115648;29;20051;-77
2021/07/12 03:52:40;;;;;;;22.90;7.50;;;;;;;;;;6115039;29;20051;-77
2021/07/12 03:55:42;;;;;;;44.85;8.60;;;;;;;;;;6115069;29;20047;-77
2021/07/12 03:58:44;;;;;;;47.13;9.05;;;;;;;;;;6115086;29;20047;-77
2021/07/12 04:01:46;;;;;;;29.50;8.40;;;;;;;;;;6114968;29;20095;-78
2021/07/12 04:04:47;;;;;;;37.90;7.80;;;;;;;;;;6118322;29;20052;-77
2021/07/12 04:07:50;;;;;;;15.48;7.47;;;;;;;;;;6121530;29;20043;-77
2021/07/12 04:10:52;;;;;;;16.20;8.27;;;;;;;;;;6121214;28;20407;-77
2021/07/12 04:13:54;;;;;;;50.70;9.27;;;;;;;;;;6129973;28;20195;-77
2021/07/12 04:16:55;;;;;;;12.57;7.35;;;;;;;;;;6134749;28;20249;-77
2021/07/12 04:19:57;;;;;;;21.42;8.02;;;;;;;;;;6119360;29;20047;-78
2021/07/12 04:22:59;;;;;;;18.27;8.07;;;;;;;;;;6121366;29;20047;-77
2021/07/12 04:26:01;;;;;;;15.25;8.15;;;;;;;;;;6140414;28;20238;-77
2021/07/12 04:29:03;;;;;;;19.63;7.47;;;;;;;;;;6143192;28;20114;-77
2021/07/12 04:32:05;;;;;;;15.35;7.28;;;;;;;;;;6140627;28;20043;-77
2021/07/12 04:35:07;;;;;;;21.13;7.85;;;;;;;;;;6142193;28;20039;-77
2021/07/12 04:38:09;;;;;;;40.95;7.65;;;;;;;;;;6142430;28;20608;-77
2021/07/12 04:41:10;;;;;;;31.42;7.45;;;;;;;;;;6116421;28;20121;-78
2021/07/12 04:44:12;;;;;;;37.83;7.70;;;;;;;;;;6139820;28;20079;-77
2021/07/12 04:47:14;;;;;;;36.55;7.72;;;;;;;;;;6129427;28;20126;-77
2021/07/12 04:50:17;;;;;;;28.80;7.57;;;;;;;;;;6120976;28;20059;-77
2021/07/12 04:53:18;;;;;;;12.73;6.78;;;;;;;;;;6144168;28;20393;-77
2021/07/12 04:56:20;;;;;;;11.88;6.60;;;;;;;;;;6135955;28;20063;-77
2021/07/12 04:59:28;;;;;;;13.13;7.88;;;;;;;;;;6118982;29;20131;-77
2021/07/12 05:02:30;;;;;;;26.05;6.40;;;;;;;;;;6122938;28;20417;-77
2021/07/12 05:05:33;;;;;;;12.38;7.60;;;;;;;;;;6118346;28;20063;-77
2021/07/12 05:08:34;;;;;;;;;;;;;;;;;;6118467;28;20079;-77
2021/07/12 05:11:36;;;;;;;18.08;7.18;;;;;;;;;;6118552;28;20025;-77
2021/07/12 05:14:39;;;;;;;15.48;7.45;;;;;;;;;;6110330;29;20136;-77
2021/07/12 05:17:41;;;;;;;28.33;7.43;;;;;;;;;;6115885;29;20498;-77
2021/07/12 05:20:43;;;;;;;12.30;7.13;;;;;;;;;;6109661;29;20119;-76
2021/07/12 05:23:45;;;;;;;13.95;7.68;;;;;;;;;;6094506;29;20531;-77
2021/07/12 05:26:47;;;;;;;11.80;6.90;;;;;;;;;;6108677;29;20072;-77
2021/07/12 05:29:48;;;;;;;13.15;6.63;;;;;;;;;;6116987;29;20136;-77
2021/07/12 05:32:50;;;;;;;11.15;6.47;;;;;;;;;;6122651;28;20557;-77
2021/07/12 05:35:52;;;;;;;28.67;7.82;;;;;;;;;;6092868;29;20055;-77
2021/07/12 05:38:53;;;;;;;16.60;8.07;;;;;;;;;;6109052;29;20399;-77
2021/07/12 05:41:55;;;;;;;13.68;7.28;;;;;;;;;;6094529;29;20044;-77
2021/07/12 05:44:57;;;;;;;14.45;8.00;;;;;;;;;;6116442;29;20131;-77
2021/07/12 05:47:58;;;;;;;22.45;8.70;;;;;;;;;;6133436;28;20075;-77
2021/07/12 05:51:00;;;;;;;10.82;6.70;;;;;;;;;;6116449;29;20047;-77
2021/07/12 05:54:02;;;;;;;12.77;7.18;;;;;;;;;;6115712;29;20051;-77
2021/07/12 05:57:04;;;;;;;11.02;6.57;;;;;;;;;;6117726;28;20071;-77
2021/07/12 06:00:09;;;;;;;25.37;7.43;;;;;;;;;;6117888;29;20431;-77
2021/07/12 06:03:13;;;;;;;14.18;7.10;;;;;;;;;;6117442;28;20429;-77
2021/07/12 06:06:15;;;;;;;27.10;7.43;;;;;;;;;;6116920;29;20127;-77
2021/07/12 06:09:16;;;;;;;35.33;8.20;;;;;;;;;;6117606;29;20067;-77
2021/07/12 06:12:18;;;;;;;11.80;7.13;;;;;;;;;;6116740;29;20130;-77
2021/07/12 06:15:20;;;;;;;13.35;7.63;;;;;;;;;;6137832;28;20131;-77
2021/07/12 06:18:22;;;;;;;9.82;6.68;;;;;;;;;;6118910;28;20575;-77
2021/07/12 06:21:25;;;;;;;11.65;7.15;;;;;;;;;;6116018;29;20560;-77
2021/07/12 06:24:27;;;;;;;10.70;6.82;;;;;;;;;;6116309;29;20135;-78
2021/07/12 06:27:28;;;;;;;12.73;7.78;;;;;;;;;;6128284;28;20134;-76
2021/07/12 06:30:31;;;;;;;12.15;7.97;;;;;;;;;;6137301;28;20054;-77
2021/07/12 06:33:32;;;;;;;14.00;8.10;;;;;;;;;;6134261;28;20121;-77
2021/07/12 06:36:34;;;;;;;12.65;8.00;;;;;;;;;;6139021;28;20510;-78
2021/07/12 06:39:36;;;;;;;13.98;8.82;;;;;;;;;;6136501;28;20425;-77
2021/07/12 06:42:37;;;;;;;11.38;7.95;;;;;;;;;;6131518;28;20142;-76
2021/07/12 06:45:39;;;;;;;13.30;8.32;;;;;;;;;;6092214;29;20040;-78
2021/07/12 06:48:41;;;;;;;12.00;7.60;;;;;;;;;;6093660;29;20044;-77
2021/07/12 06:51:50;;;;;;;11.00;7.22;;;;;;;;;;6107348;29;20192;-77
2021/07/12 06:54:51;;;;;;;12.10;7.28;;;;;;;;;;6090475;29;20092;-76
2021/07/12 06:57:53;;;;;;;14.85;7.82;;;;;;;;;;6092159;29;20052;-76
2021/07/12 07:00:55;;;;;;;10.82;7.35;;;;;;;;;;6093584;29;20193;-76
2021/07/12 07:03:57;;;;;;;11.45;8.25;;;;;;;;;;6092928;29;20044;-77
2021/07/12 07:06:59;;;;;;;12.85;8.50;;;;;;;;;;6093079;29;20052;-77
2021/07/12 07:10:07;;;;;;;12.65;8.27;;;;;;;;;;6107021;29;20054;-77
2021/07/12 07:13:13;;;;;;;12.15;8.10;;;;;;;;;;6098828;29;20051;-76
2021/07/12 07:16:15;;;;;;;12.52;8.13;;;;;;;;;;6111299;28;20051;-76
2021/07/12 07:19:17;;;;;;;13.73;8.75;;;;;;;;;;6113413;28;20435;-77
2021/07/12 07:22:18;;;;;;;14.57;8.95;;;;;;;;;;6135974;28;20090;-76
2021/07/12 07:25:23;;;;;;;13.98;8.82;;;;;;;;;;6119593;28;20043;-77
2021/07/12 07:28:30;;;;;;;12.98;8.55;;;;;;;;;;6136655;28;20054;-77
2021/07/12 07:31:31;;;;;;;15.63;8.98;;;;;;;;;;6133726;28;20544;-77
2021/07/12 07:34:34;;;;;;;14.68;9.18;;;;;;;;;;6140020;28;20377;-76
2021/07/12 07:37:36;;;;;;;12.77;8.07;;;;;;;;;;6139639;28;20051;-77
2021/07/12 07:40:38;;;;;;;11.90;7.95;;;;;;;;;;6128184;28;20047;-78
2021/07/12 07:43:39;;;;;;;13.27;8.82;;;;;;;;;;6113586;29;20039;-78
2021/07/12 07:46:41;;;;;;;11.80;8.60;;;;;;;;;;6117245;28;20071;-77
2021/07/12 07:49:43;;;;;;;12.57;8.68;;;;;;;;;;6129956;29;20043;-77
2021/07/12 07:52:46;;;;;;;11.85;8.18;;;;;;;;;;6115694;29;20138;-78
2021/07/12 07:55:48;;;;;;;10.53;8.03;;;;;;;;;;6119562;28;20145;-77
2021/07/12 07:58:49;;;;;;;10.82;7.60;;;;;;;;;;6136150;28;20114;-77
2021/07/12 08:01:51;;;;;;;12.60;7.63;;;;;;;;;;6135742;28;20074;-77
2021/07/12 08:04:53;;;;;;;8.87;7.37;;;;;;;;;;6142459;28;20051;-77
2021/07/12 08:07:55;;;;;;;9.57;7.38;;;;;;;;;;6151324;28;20043;-76
2021/07/12 08:10:57;;;;;;;10.63;7.65;;;;;;;;;;6122534;29;20099;-76
2021/07/12 08:13:58;;;;;;;7.53;6.32;;;;;;;;;;6124920;28;20095;-77
2021/07/12 08:17:00;;;;;;;9.85;6.22;;;;;;;;;;6128421;28;20609;-77
2021/07/12 08:20:04;;;;;;;9.05;6.65;;;;;;;;;;6115552;29;20103;-77
2021/07/12 08:23:26;;;;;;;8.25;5.63;;;;;;;;;;6115209;28;20056;-77
2021/07/12 08:26:28;;;;;;;6.85;6.00;;;;;;;;;;6115088;29;20048;-77
2021/07/12 08:29:30;;;;;;;7.03;5.93;;;;;;;;;;6115077;29;20186;-77
2021/07/12 08:32:31;;;;;;;8.67;5.83;;;;;;;;;;6146769;28;20055;-77
2021/07/12 08:35:33;;;;;;;6.93;5.80;;;;;;;;;;6137902;28;21138;-77
2021/07/12 08:38:35;;;;;;;7.45;5.85;;;;;;;;;;6153751;28;20504;-77
2021/07/12 08:41:38;;;;;;;7.15;5.65;;;;;;;;;;6123775;28;20204;-77
2021/07/12 08:44:40;;;;;;;7.85;5.97;;;;;;;;;;6113096;29;20122;-77
2021/07/12 08:47:42;;;;;;;6.87;5.53;;;;;;;;;;6117655;28;20167;-77
2021/07/12 08:50:47;;;;;;;5.90;5.37;;;;;;;;;;6118581;29;20478;-77
2021/07/12 08:53:49;;;;;;;5.32;4.75;;;;;;;;;;6133756;29;20187;-77
2021/07/12 08:56:50;;;;;;;5.30;4.50;;;;;;;;;;6119184;28;20114;-77
2021/07/12 08:59:56;;;;;;;5.50;4.97;;;;;;;;;;6134148;29;20175;-77
2021/07/12 09:02:58;;;;;;;4.95;4.45;;;;;;;;;;6133685;28;20047;-77
2021/07/12 09:06:14;;;;;;;5.45;4.55;;;;;;;;;;6116688;29;20130;-77
2021/07/12 09:09:20;;;;;;;5.07;4.57;;;;;;;;;;6118504;29;20138;-77
2021/07/12 09:12:22;;;;;;;5.75;4.38;;;;;;;;;;6133330;28;20710;-77
2021/07/12 09:15:24;;;;;;;4.72;4.32;;;;;;;;;;6139361;28;20117;-77
2021/07/12 09:18:34;;;;;;;5.17;4.73;;;;;;;;;;6134650;28;20148;-77
2021/07/12 09:21:44;;;;;;;5.15;4.65;;;;;;;;;;6133164;29;20390;-77
2021/07/12 09:24:55;;;;;;;4.68;4.22;;;;;;;;;;6132584;28;20557;-78
2021/07/12 09:27:58;;;;;;;7.13;4.32;;;;;;;;;;6118217;29;20054;-77
2021/07/12 09:31:00;;;;;;;5.50;4.75;;;;;;;;;;6116958;28;20166;-77
2021/07/12 09:34:02;;;;;;;5.20;4.70;;;;;;;;;;6117646;29;20139;-77
2021/07/12 09:37:10;;;;;;;4.53;4.13;;;;;;;;;;6117111;29;20425;-76
2021/07/12 09:40:17;;;;;;;5.03;4.53;;;;;;;;;;6118173;29;20047;-77
2021/07/12 09:43:32;;;;;;;5.00;4.50;;;;;;;;;;6118310;29;20067;-77
2021/07/12 09:46:34;;;;;;;4.68;4.20;;;;;;;;;;6118510;28;20095;-77
2021/07/12 09:49:37;;;;;;;4.78;4.32;;;;;;;;;;6132358;29;20043;-77
2021/07/12 09:52:41;;;;;;;5.90;4.30;;;;;;;;;;6117788;29;20102;-77
2021/07/12 09:55:43;;;;;;;4.57;4.10;;;;;;;;;;6115989;28;20126;-77
2021/07/12 09:58:45;;;;;;;5.07;4.27;;;;;;;;;;6117905;29;20143;-77
2021/07/12 10:01:49;;;;;;;4.80;4.40;;;;;;;;;;6116858;29;20178;-77
2021/07/12 10:05:00;;;;;;;5.38;4.55;;;;;;;;;;6117449;29;20047;-78
2021/07/12 10:08:02;;;;;;;4.80;4.40;;;;;;;;;;6099942;29;20122;-77
2021/07/12 10:11:04;;;;;;;;;;;;;;;;;;6118309;28;20056;-77
2021/07/12 10:14:06;;;;;;;5.32;4.82;;;;;;;;;;6128283;28;19926;-77
2021/07/12 10:17:10;;;;;;;4.38;3.97;;;;;;;;;;6107042;28;20055;-77
2021/07/12 10:20:14;;;;;;;4.30;3.90;;;;;;;;;;6094117;29;20087;-77
2021/07/12 10:23:17;;;;;;;4.30;3.90;;;;;;;;;;6092067;29;20126;-77
2021/07/12 10:26:57;;;;;;;4.28;3.88;;;;;;;;;;6094498;29;20127;-77
2021/07/12 10:30:24;;;;;;;4.20;3.80;;;;;;;;;;6094423;29;20080;-77
2021/07/12 10:33:35;;;;;;;3.40;3.10;;;;;;;;;;6092589;29;20092;-78
2021/07/12 10:36:38;;;;;;;3.60;3.30;;;;;;;;;;6093329;29;20040;-78
2021/07/12 10:40:05;;;;;;;4.15;3.50;;;;;;;;;;6093552;29;20506;-76
2021/07/12 10:43:07;;;;;;;3.88;2.95;;;;;;;;;;6092876;29;20083;-78
2021/07/12 10:46:10;;;;;;;;;;;;;;;;;;6096651;29;20048;-76
2021/07/12 10:49:35;;;;;;;4.75;3.50;;;;;;;;;;6115275;29;19927;-77
2021/07/12 10:52:43;;;;;;;3.72;3.30;;;;;;;;;;6115990;28;20063;-77
2021/07/12 10:56:03;;;;;;;5.30;3.58;;;;;;;;;;6106674;29;20083;-79
2021/07/12 10:59:05;;;;;;;4.25;3.85;;;;;;;;;;6093130;29;20044;-77
2021/07/12 11:02:09;;;;;;;4.78;4.30;;;;;;;;;;6091500;29;20080;-78
2021/07/12 11:05:15;;;;;;;5.20;4.70;;;;;;;;;;6092304;29;20079;-77
2021/07/12 11:08:45;;;;;;;4.95;4.45;;;;;;;;;;6091438;29;20502;-77
2021/07/12 11:11:46;;;;;;;5.20;4.70;;;;;;;;;;6092272;29;20044;-77
2021/07/12 11:15:33;;;;;;;5.43;4.77;;;;;;;;;;6124488;29;20036;-77
2021/07/12 11:18:35;;;;;;;6.57;4.82;;;;;;;;;;6091172;29;20179;-78
2021/07/12 11:21:37;;;;;;;6.10;4.68;;;;;;;;;;6092310;29;20404;-78
2021/07/12 11:25:01;;;;;;;5.43;4.93;;;;;;;;;;6091209;29;20147;-78
2021/07/12 11:28:18;;;;;;;4.47;4.05;;;;;;;;;;6091963;29;20165;-78
2021/07/12 11:31:38;;;;;;;5.80;4.20;;;;;;;;;;6091241;29;20071;-80
2021/07/12 11:34:51;;;;;;;4.57;4.13;;;;;;;;;;6091722;29;20048;-78
2021/07/12 11:38:02;;;;;;;5.80;3.85;;;;;;;;;;6091752;29;20172;-77
2021/07/12 11:41:06;;;;;;;4.20;3.80;;;;;;;;;;6091588;29;20119;-78
2021/07/12 11:44:12;;;;;;;3.80;3.50;;;;;;;;;;6091019;29;20071;-78
2021/07/12 11:47:16;;;;;;;4.20;3.60;;;;;;;;;;6102631;29;20068;-80
2021/07/12 11:50:24;;;;;;;4.35;3.90;;;;;;;;;;6092368;29;20119;-77
2021/07/12 11:53:26;;;;;;;4.55;4.10;;;;;;;;;;6091285;29;20195;-79
2021/07/12 11:56:28;;;;;;;4.47;3.90;;;;;;;;;;6129046;28;20048;-78
2021/07/12 11:59:35;;;;;;;4.43;4.03;;;;;;;;;;6153021;28;20528;-78
2021/07/12 12:02:38;;;;;;;4.60;4.20;;;;;;;;;;6123217;28;20048;-78
2021/07/12 12:05:44;;;;;;;3.55;2.78;;;;;;;;;;6114362;29;20080;-80
2021/07/12 12:08:56;;;;;;;3.45;3.15;;;;;;;;;;6113103;29;20087;-78
2021/07/12 12:11:58;;;;;;;3.10;2.80;;;;;;;;;;6115334;29;20042;-78
2021/07/12 12:15:03;;;;;;;3.27;2.80;;;;;;;;;;6148259;28;20828;-78
2021/07/12 12:18:08;;;;;;;3.03;2.80;;;;;;;;;;6137434;28;20066;-78
2021/07/12 12:21:11;;;;;;;3.03;2.72;;;;;;;;;;6138415;28;20194;-77
2021/07/12 12:24:12;;;;;;;4.05;2.63;;;;;;;;;;6137421;28;20179;-78
2021/07/12 12:27:14;;;;;;;2.67;2.47;;;;;;;;;;6141807;28;20118;-78
2021/07/12 12:30:17;;;;;;;2.42;2.22;;;;;;;;;;6142653;28;20702;-77
2021/07/12 12:33:30;;;;;;;2.80;2.47;;;;;;;;;;6155882;28;20047;-78
2021/07/12 12:36:37;;;;;;;3.65;2.50;;;;;;;;;;6142755;28;20611;-77
2021/07/12 12:39:39;;;;;;;2.90;2.40;;;;;;;;;;6142770;28;20043;-79
2021/07/12 12:42:41;;;;;;;2.20;2.00;;;;;;;;;;6123288;28;20098;-77
2021/07/12 12:45:58;;;;;;;3.90;2.30;;;;;;;;;;6134243;28;20110;-78
2021/07/12 12:49:15;;;;;;;2.58;2.38;;;;;;;;;;6117493;29;20051;-79
2021/07/12 12:52:16;;;;;;;2.47;2.28;;;;;;;;;;6118540;29;20409;-78
2021/07/12 12:55:26;;;;;;;2.60;2.40;;;;;;;;;;6118076;28;20493;-77
2021/07/12 12:58:27;;;;;;;2.40;2.20;;;;;;;;;;6116875;29;20047;-78
2021/07/12 13:01:35;;;;;;;2.50;2.30;;;;;;;;;;6118953;28;20108;-78
2021/07/12 13:04:53;;;;;;;3.97;2.33;;;;;;;;;;6116724;29;20524;-77
2021/07/12 13:07:56;;;;;;;3.40;2.30;;;;;;;;;;6118433;29;20109;-76
2021/07/12 13:11:03;;;;;;;2.78;1.92;;;;;;;;;;6132599;28;20057;-78
2021/07/12 13:14:04;;;;;;;2.05;1.80;;;;;;;;;;6130548;28;20138;-75
2021/07/12 13:17:11;;;;;;;1.98;1.88;;;;;;;;;;6140375;28;20054;-77
2021/07/12 13:20:22;;;;;;;3.28;2.25;;;;;;;;;;6154207;28;20043;-78
2021/07/12 13:23:28;;;;;;;3.55;2.13;;;;;;;;;;6130290;28;21187;-77
2021/07/12 13:26:30;;;;;;;2.60;2.40;;;;;;;;;;6141491;28;20520;-78
2021/07/12 13:29:31;;;;;;;2.85;2.55;;;;;;;;;;6140255;28;20156;-77
2021/07/12 13:32:33;;;;;;;2.20;2.10;;;;;;;;;;6122176;28;20059;-78
2021/07/12 13:35:36;;;;;;;2.13;2.03;;;;;;;;;;6152449;28;20055;-77
2021/07/12 13:38:38;;;;;;;2.65;2.28;;;;;;;;;;6139536;28;20557;-77
2021/07/12 13:41:39;;;;;;;2.30;2.20;;;;;;;;;;6134030;28;21537;-77
2021/07/12 13:44:42;;;;;;;2.60;2.40;;;;;;;;;;6135981;28;20047;-77
2021/07/12 13:47:44;;;;;;;2.17;1.83;;;;;;;;;;6150735;28;20446;-77
2021/07/12 13:50:47;;;;;;;2.53;2.33;;;;;;;;;;6135775;28;20050;-78
2021/07/12 13:53:49;;;;;;;2.42;2.22;;;;;;;;;;6151280;28;20130;-79
2021/07/12 13:56:51;;;;;;;2.45;2.25;;;;;;;;;;6124563;28;20413;-78
2021/07/12 13:59:53;;;;;;;3.42;2.35;;;;;;;;;;6129964;29;20040;-77
2021/07/12 14:02:56;;;;;;;2.72;2.53;;;;;;;;;;6130656;28;20047;-76
2021/07/12 14:05:58;;;;;;;2.42;2.22;;;;;;;;;;6137766;28;20043;-77
2021/07/12 14:09:01;;;;;;;2.60;2.40;;;;;;;;;;6152720;28;20047;-77
2021/07/12 14:12:04;;;;;;;3.55;2.20;;;;;;;;;;6132030;28;20521;-79
2021/07/12 14:15:12;;;;;;;2.75;2.47;;;;;;;;;;6133820;28;20043;-77
2021/07/12 14:18:14;;;;;;;2.30;2.15;;;;;;;;;;6122327;28;20130;-77
2021/07/12 14:21:17;;;;;;;2.70;2.50;;;;;;;;;;6139590;28;20054;-77
2021/07/12 14:24:19;;;;;;;2.65;2.45;;;;;;;;;;6134523;28;20047;-77
2021/07/12 14:27:20;;;;;;;3.83;2.25;;;;;;;;;;6123637;28;20148;-80
2021/07/12 14:30:22;;;;;;;3.63;2.60;;;;;;;;;;6114564;29;20055;-77
2021/07/12 14:33:24;;;;;;;2.30;2.10;;;;;;;;;;6131462;28;20538;-78
2021/07/12 14:36:26;;;;;;;2.83;2.13;;;;;;;;;;6138025;28;20520;-77
2021/07/12 14:39:28;;;;;;;2.38;2.17;;;;;;;;;;6131968;28;20047;-78
2021/07/12 14:42:30;;;;;;;2.45;2.25;;;;;;;;;;6114200;29;20134;-77
2021/07/12 14:45:32;;;;;;;2.97;2.30;;;;;;;;;;6133063;28;20055;-79
2021/07/12 14:48:33;;;;;;;2.50;2.08;;;;;;;;;;6114344;28;20421;-78
2021/07/12 14:51:35;;;;;;;2.10;2.00;;;;;;;;;;6143368;28;20051;-77
2021/07/12 14:54:39;;;;;;;2.40;2.20;;;;;;;;;;6136015;28;20532;-77
2021/07/12 14:57:41;;;;;;;2.78;2.30;;;;;;;;;;6117275;28;20044;-78
2021/07/12 15:00:43;;;;;;;4.13;2.30;;;;;;;;;;6113793;29;20498;-80
2021/07/12 15:03:45;;;;;;;2.30;2.10;;;;;;;;;;6117860;28;20567;-78
2021/07/12 15:06:46;;;;;;;2.10;2.00;;;;;;;;;;6138502;28;20532;-81
2021/07/12 15:09:49;;;;;;;4.28;2.70;;;;;;;;;;6135680;28;20043;-81
2021/07/12 15:12:51;;;;;;;3.43;1.90;;;;;;;;;;6143202;28;20074;-79
2021/07/12 15:15:53;;;;;;;3.03;2.35;;;;;;;;;;6140829;28;20046;-82
2021/07/12 15:18:56;;;;;;;3.00;2.13;;;;;;;;;;6160348;28;20039;-83
2021/07/12 15:21:58;;;;;;;3.47;2.40;;;;;;;;;;6138185;29;20137;-81
2021/07/12 15:25:00;;;;;;;2.20;2.00;;;;;;;;;;6135459;28;20151;-81
2021/07/12 15:28:02;;;;;;;3.92;2.20;;;;;;;;;;6143898;28;20039;-81
2021/07/12 15:31:04;;;;;;;2.10;2.00;;;;;;;;;;6138459;28;20099;-80
2021/07/12 15:34:06;;;;;;;2.53;2.33;;;;;;;;;;6125537;28;20043;-81
2021/07/12 15:37:08;;;;;;;4.22;2.40;;;;;;;;;;6159633;28;20090;-81
2021/07/12 15:40:11;;;;;;;2.60;2.40;;;;;;;;;;6145604;28;20190;-82
2021/07/12 15:43:14;;;;;;;2.50;2.30;;;;;;;;;;6143303;28;20067;-80
2021/07/12 15:46:18;;;;;;;4.20;2.42;;;;;;;;;;6137966;28;20126;-78
2021/07/12 15:49:20;;;;;;;2.50;2.30;;;;;;;;;;6128222;28;20133;-78
2021/07/12 15:52:22;;;;;;;2.70;2.40;;;;;;;;;;6143145;28;20071;-78
2021/07/12 15:55:23;;;;;;;2.78;2.47;;;;;;;;;;6153389;28;20179;-77
2021/07/12 15:58:26;;;;;;;3.53;2.33;;;;;;;;;;6115870;29;20046;-77
2021/07/12 16:01:29;;;;;;;2.50;2.30;;;;;;;;;;6140738;28;20466;-75
2021/07/12 16:04:32;;;;;;;5.13;2.80;;;;;;;;;;6140641;28;20062;-78
2021/07/12 16:07:34;;;;;;;3.25;2.45;;;;;;;;;;6143153;28;20126;-78
2021/07/12 16:10:38;;;;;;;2.40;2.20;;;;;;;;;;6140812;28;20051;-76
2021/07/12 16:13:40;;;;;;;2.50;2.30;;;;;;;;;;6152809;28;20046;-76
2021/07/12 16:16:43;;;;;;;2.75;2.50;;;;;;;;;;6136805;28;20050;-76
2021/07/12 16:19:46;;;;;;;2.40;2.20;;;;;;;;;;6141929;28;20069;-76
2021/07/12 16:22:47;;;;;;;2.90;2.55;;;;;;;;;;6141592;28;20178;-76
2021/07/12 16:25:49;;;;;;;2.47;2.27;;;;;;;;;;6136154;28;20517;-75
2021/07/12 16:28:51;;;;;;;2.60;2.40;;;;;;;;;;6140289;28;20544;-75
2021/07/12 16:31:53;;;;;;;2.67;2.45;;;;;;;;;;6138050;28;20130;-75
2021/07/12 16:35:00;;;;;;;3.90;2.40;;;;;;;;;;6139759;28;20787;-75
2021/07/12 16:38:01;;;;;;;3.10;2.80;;;;;;;;;;6142155;28;20047;-76
2021/07/12 16:41:03;;;;;;;2.57;2.37;;;;;;;;;;6133704;28;20184;-77
2021/07/12 16:44:06;;;;;;;3.20;2.85;;;;;;;;;;6123502;28;20782;-75
2021/07/12 16:47:12;;;;;;;2.83;2.63;;;;;;;;;;6139133;28;20540;-75
2021/07/12 16:50:15;;;;;;;2.63;2.42;;;;;;;;;;6141246;28;20046;-75
2021/07/12 16:53:17;;;;;;;2.70;2.50;;;;;;;;;;6141838;28;20051;-75
2021/07/12 16:56:18;;;;;;;2.55;2.35;;;;;;;;;;6131291;28;20642;-75
2021/07/12 16:59:20;;;;;;;2.70;2.50;;;;;;;;;;6117208;29;20068;-75
2021/07/12 17:02:22;;;;;;;3.03;2.60;;;;;;;;;;6116748;29;20040;-75
2021/07/12 17:05:24;;;;;;;4.35;2.80;;;;;;;;;;6150680;28;20077;-76
2021/07/12 17:08:29;;;;;;;2.97;2.78;;;;;;;;;;6139633;28;20155;-76
2021/07/12 17:11:31;;;;;;;2.92;2.70;;;;;;;;;;6149160;28;20043;-75
2021/07/12 17:14:33;;;;;;;3.27;2.50;;;;;;;;;;6131530;28;20046;-75
2021/07/12 17:17:37;;;;;;;3.55;2.90;;;;;;;;;;6137759;28;20127;-76
2021/07/12 17:20:42;;;;;;;3.20;2.80;;;;;;;;;;6126491;28;20047;-76
2021/07/12 17:23:43;;;;;;;3.30;3.00;;;;;;;;;;6132696;28;20095;-76
2021/07/12 17:26:45;;;;;;;3.33;3.00;;;;;;;;;;6139384;28;20138;-76
2021/07/12 17:29:48;;;;;;;3.22;2.67;;;;;;;;;;6139876;28;20096;-76
2021/07/12 17:32:49;;;;;;;4.47;2.70;;;;;;;;;;6152210;28;20039;-76
2021/07/12 17:35:51;;;;;;;2.80;2.60;;;;;;;;;;6140284;28;20087;-79
2021/07/12 17:39:15;;;;;;;3.88;2.90;;;;;;;;;;6151231;28;20385;-76
2021/07/12 17:42:17;;;;;;;2.97;2.75;;;;;;;;;;6118382;28;20046;-76
2021/07/12 17:45:22;;;;;;;2.80;2.60;;;;;;;;;;6134756;28;20197;-76
2021/07/12 17:48:24;;;;;;;3.42;2.95;;;;;;;;;;6116313;28;20564;-76
2021/07/12 17:51:26;;;;;;;3.08;2.88;;;;;;;;;;6138434;28;20047;-76
2021/07/12 17:54:28;;;;;;;2.95;2.72;;;;;;;;;;6132814;28;20186;-78
2021/07/12 17:57:32;;;;;;;3.03;2.80;;;;;;;;;;6120022;28;20183;-76
2021/07/12 18:00:34;;;;;;;4.73;2.97;;;;;;;;;;6117667;29;20158;-76
2021/07/12 18:03:39;;;;;;;4.85;2.78;;;;;;;;;;6119086;28;20055;-77
2021/07/12 18:06:40;;;;;;;3.60;3.05;;;;;;;;;;6141446;28;20047;-78
2021/07/12 18:09:43;;;;;;;3.50;2.73;;;;;;;;;;6140997;28;20156;-79
2021/07/12 18:12:44;;;;;;;4.82;2.95;;;;;;;;;;6136033;28;20036;-76
2021/07/12 18:15:47;;;;;;;3.58;2.88;;;;;;;;;;6131110;28;20646;-76
2021/07/12 18:18:52;;;;;;;;;;;;;;;;;;6131345;28;20071;-78
2021/07/12 18:21:53;;;;;;;3.58;2.95;;;;;;;;;;6132262;28;20401;-78